Time;durP1;ratioP1;P1;durP2;ratioP2;P2;SDS_P1;SDS_P2;PMS_P1;PMS_P2;Temp;Humidity;BMP_temperature;BMP_pressure;BME280_temperature;BME280_humidity;BME280_pressure;Samples;Min_cycle;Max_cycle;Signal;HPM_P1;HPM_P2
2021/04/02 00:00:24;;;;;;;2.17;0.80;;;9.50;99.90;;;;;;5013630;28;20593;-84
2021/04/02 00:02:50;;;;;;;0.20;0.10;;;9.40;99.90;;;;;;5013403;28;20218;-84
2021/04/02 00:05:18;;;;;;;0.20;0.20;;;9.40;99.90;;;;;;5011112;28;20193;-83
2021/04/02 00:07:45;;;;;;;0.30;0.30;;;9.30;99.90;;;;;;5013464;28;20239;-84
2021/04/02 00:10:15;;;;;;;0.67;0.37;;;9.20;99.90;;;;;;5014008;28;20248;-84
2021/04/02 00:12:40;;;;;;;0.17;0.17;;;9.20;99.90;;;;;;5014724;28;20193;-84
2021/04/02 00:15:12;;;;;;;0.50;0.20;;;9.10;99.90;;;;;;4985969;28;20559;-87
2021/04/02 00:17:38;;;;;;;0.70;0.70;;;9.10;99.90;;;;;;5013852;28;20181;-86
2021/04/02 00:20:07;;;;;;;0.30;0.30;;;9.00;99.90;;;;;;4996672;28;20583;-85
2021/04/02 00:22:32;;;;;;;2.83;2.63;;;8.90;99.90;;;;;;4996008;28;20246;-84
2021/04/02 00:24:58;;;;;;;1.13;0.40;;;8.90;99.90;;;;;;5014800;28;20188;-85
2021/04/02 00:27:23;;;;;;;0.43;0.43;;;8.80;99.90;;;;;;5014348;28;20253;-84
2021/04/02 00:29:49;;;;;;;0.37;0.30;;;8.80;99.90;;;;;;4996258;28;20217;-85
2021/04/02 00:32:14;;;;;;;6.97;0.50;;;8.70;99.90;;;;;;4993273;28;20272;-85
2021/04/02 00:34:40;;;;;;;0.00;0.00;;;8.60;99.90;;;;;;4996222;28;20175;-85
2021/04/02 00:37:06;;;;;;;0.27;0.27;;;8.60;99.90;;;;;;4995799;28;20190;-84
2021/04/02 00:39:32;;;;;;;0.10;0.10;;;8.60;99.90;;;;;;4995784;28;20276;-83
2021/04/02 00:41:58;;;;;;;0.30;0.30;;;8.50;99.90;;;;;;5013210;28;20275;-84
2021/04/02 00:44:23;;;;;;;0.40;0.40;;;8.50;99.90;;;;;;5000250;28;20199;-83
2021/04/02 00:46:49;;;;;;;0.00;0.00;;;8.40;99.90;;;;;;4997455;28;20709;-84
2021/04/02 00:49:15;;;;;;;0.60;0.60;;;8.40;99.90;;;;;;5007012;28;20208;-84
2021/04/02 00:51:40;;;;;;;0.17;0.17;;;8.30;99.90;;;;;;5012400;28;20349;-84
2021/04/02 00:54:07;;;;;;;0.20;0.20;;;8.20;99.90;;;;;;5013192;28;20221;-84
2021/04/02 00:56:32;;;;;;;0.30;0.30;;;8.20;99.90;;;;;;4995320;28;20266;-86
2021/04/02 00:58:59;;;;;;;0.63;0.47;;;8.20;99.90;;;;;;5001392;28;20771;-84
2021/04/02 01:01:45;;;;;;;0.20;0.20;;;8.10;99.90;;;;;;4991647;28;20254;-84
2021/04/02 01:04:10;;;;;;;0.20;0.20;;;8.10;99.90;;;;;;4989416;28;20668;-83
2021/04/02 01:06:36;;;;;;;0.73;0.40;;;8.10;99.90;;;;;;5002663;28;20237;-84
2021/04/02 01:09:03;;;;;;;0.10;0.10;;;8.00;99.90;;;;;;4993192;28;20210;-83
2021/04/02 01:11:28;;;;;;;1.50;0.63;;;8.00;99.90;;;;;;5012968;28;20706;-85
2021/04/02 01:13:56;;;;;;;0.40;0.07;;;8.00;99.90;;;;;;4992308;28;20210;-84
2021/04/02 01:16:25;;;;;;;0.30;0.30;;;7.90;99.90;;;;;;5026613;28;20676;-83
2021/04/02 01:19:06;;;;;;;0.10;0.10;;;7.90;99.90;;;;;;4993342;28;20184;-84
2021/04/02 01:21:36;;;;;;;0.20;0.20;;;7.90;99.90;;;;;;5008181;28;20204;-85
2021/04/02 01:24:25;;;;;;;0.40;0.30;;;7.80;99.90;;;;;;5009802;28;20221;-84
2021/04/02 01:27:20;;;;;;;0.50;0.50;;;7.80;99.90;;;;;;5012843;28;20755;-84
2021/04/02 01:30:02;;;;;;;0.00;0.00;;;7.80;99.90;;;;;;5012599;28;20195;-83
2021/04/02 01:32:31;;;;;;;0.50;0.50;;;7.70;99.90;;;;;;4995363;28;20601;-84
2021/04/02 01:35:21;;;;;;;0.27;0.27;;;7.70;99.90;;;;;;4995107;28;20217;-89
2021/04/02 01:37:52;;;;;;;0.23;0.13;;;7.60;99.90;;;;;;4993809;28;20215;-82
2021/04/02 01:40:19;;;;;;;0.20;0.20;;;7.60;99.90;;;;;;4994644;28;20294;-83
2021/04/02 01:42:47;;;;;;;0.30;0.30;;;7.60;99.90;;;;;;5003017;28;20615;-84
2021/04/02 01:45:15;;;;;;;0.30;0.30;;;7.60;99.90;;;;;;5013440;28;20192;-84
2021/04/02 01:47:41;;;;;;;0.30;0.30;;;7.60;99.90;;;;;;4994553;28;20211;-83
2021/04/02 01:50:11;;;;;;;0.40;0.40;;;7.60;99.90;;;;;;5006899;28;20885;-84
2021/04/02 01:52:38;;;;;;;0.20;0.20;;;7.50;99.90;;;;;;4995016;28;20272;-83
2021/04/02 01:55:06;;;;;;;0.33;0.33;;;7.50;99.90;;;;;;4994711;28;20556;-83
2021/04/02 01:57:32;;;;;;;0.40;0.40;;;7.50;99.90;;;;;;4994388;28;20187;-84
2021/04/02 02:00:00;;;;;;;0.50;0.50;;;7.50;99.90;;;;;;4995109;28;20205;-83
2021/04/02 02:02:27;;;;;;;0.57;0.57;;;7.60;99.90;;;;;;5012248;28;20183;-83
2021/04/02 02:04:55;;;;;;;0.10;0.10;;;7.40;99.90;;;;;;4994239;28;20649;-84
2021/04/02 02:07:22;;;;;;;0.30;0.10;;;7.40;99.90;;;;;;4994710;28;20291;-83
2021/04/02 02:10:30;;;;;;;0.37;0.37;;;7.40;99.90;;;;;;5012219;28;20194;-84
2021/04/02 02:12:58;;;;;;;0.50;0.20;;;7.30;99.90;;;;;;5028410;28;20187;-84
2021/04/02 02:15:25;;;;;;;0.20;0.20;;;7.30;99.90;;;;;;4994661;28;20263;-84
2021/04/02 02:17:57;;;;;;;1.17;0.30;;;7.30;99.90;;;;;;4995619;28;20316;-84
2021/04/02 02:20:24;;;;;;;0.40;0.40;;;7.20;99.90;;;;;;4999610;28;20265;-84
2021/04/02 02:22:54;;;;;;;0.47;0.40;;;7.20;99.90;;;;;;5015368;28;20271;-84
2021/04/02 02:25:19;;;;;;;0.27;0.27;;;7.10;99.90;;;;;;5013521;28;20607;-87
2021/04/02 02:27:45;;;;;;;0.20;0.20;;;7.20;99.90;;;;;;5002693;28;20282;-86
2021/04/02 02:30:15;;;;;;;1.80;1.70;;;7.10;99.90;;;;;;4987630;28;20204;-83
2021/04/02 02:32:41;;;;;;;0.20;0.20;;;7.10;99.90;;;;;;5009124;28;20196;-83
2021/04/02 02:35:08;;;;;;;1.60;0.53;;;7.10;99.90;;;;;;5005224;28;20681;-83
2021/04/02 02:37:35;;;;;;;0.07;0.07;;;7.00;99.90;;;;;;4997097;28;20206;-84
2021/04/02 02:40:10;;;;;;;0.10;0.10;;;7.00;99.90;;;;;;4997416;28;20205;-83
2021/04/02 02:42:37;;;;;;;0.50;0.50;;;7.00;99.90;;;;;;4997693;28;20182;-84
2021/04/02 02:45:05;;;;;;;2.30;1.60;;;7.00;99.90;;;;;;5030142;28;20190;-83
2021/04/02 02:47:31;;;;;;;0.30;0.30;;;6.90;99.90;;;;;;4997123;28;20193;-83
2021/04/02 02:49:59;;;;;;;0.20;0.20;;;6.90;99.90;;;;;;5012671;28;20597;-83
2021/04/02 02:52:25;;;;;;;1.17;0.37;;;6.90;99.90;;;;;;5014915;28;20188;-82
2021/04/02 02:55:27;;;;;;;0.70;0.50;;;6.90;99.90;;;;;;4997475;28;20672;-82
2021/04/02 02:57:55;;;;;;;0.67;0.67;;;6.90;99.90;;;;;;5011611;28;20289;-83
2021/04/02 03:00:25;;;;;;;0.63;0.60;;;6.80;99.90;;;;;;5029341;28;20214;-83
2021/04/02 03:02:54;;;;;;;0.10;0.10;;;6.90;99.90;;;;;;5012580;28;20210;-83
2021/04/02 03:05:22;;;;;;;0.43;0.43;;;6.80;99.90;;;;;;4995439;28;20253;-85
2021/04/02 03:07:52;;;;;;;0.30;0.30;;;6.80;99.90;;;;;;5022907;28;20272;-84
2021/04/02 03:10:18;;;;;;;0.43;0.43;;;6.80;99.90;;;;;;5006460;28;20212;-86
2021/04/02 03:12:45;;;;;;;0.40;0.40;;;6.80;99.90;;;;;;5014753;28;20213;-84
2021/04/02 03:15:16;;;;;;;0.33;0.33;;;6.80;99.90;;;;;;4997251;28;20187;-84
2021/04/02 03:17:43;;;;;;;0.00;0.00;;;6.80;99.90;;;;;;5015098;28;20196;-84
2021/04/02 03:20:10;;;;;;;0.40;0.20;;;6.90;99.90;;;;;;5014974;28;20208;-85
2021/04/02 03:22:39;;;;;;;0.67;0.20;;;6.90;99.90;;;;;;5013847;28;20265;-87
2021/04/02 03:25:08;;;;;;;0.10;0.10;;;6.90;99.90;;;;;;4995379;28;20196;-84
2021/04/02 03:27:39;;;;;;;0.50;0.50;;;6.90;99.90;;;;;;4996887;28;20674;-84
2021/04/02 03:30:11;;;;;;;0.00;0.00;;;6.90;99.90;;;;;;4996868;28;20211;-86
2021/04/02 03:32:40;;;;;;;0.33;0.33;;;6.80;99.90;;;;;;5013914;28;20194;-85
2021/04/02 03:35:08;;;;;;;0.30;0.30;;;6.90;99.90;;;;;;5009912;28;20258;-84
2021/04/02 03:37:36;;;;;;;0.10;0.10;;;6.80;99.90;;;;;;5013577;28;20203;-84
2021/04/02 03:40:06;;;;;;;0.10;0.10;;;6.90;99.90;;;;;;4990457;28;20305;-84
2021/04/02 03:42:33;;;;;;;0.23;0.23;;;6.90;99.90;;;;;;4995445;28;20188;-84
2021/04/02 03:45:01;;;;;;;0.20;0.20;;;6.90;99.90;;;;;;4996210;28;20187;-84
2021/04/02 03:47:28;;;;;;;0.80;0.33;;;6.90;99.90;;;;;;4996366;28;20183;-84
2021/04/02 03:50:15;;;;;;;0.80;0.60;;;6.90;99.90;;;;;;5013349;28;20241;-84
2021/04/02 03:52:58;;;;;;;1.83;0.30;;;6.80;99.90;;;;;;4984758;28;20183;-84
2021/04/02 03:55:53;;;;;;;0.10;0.10;;;6.70;99.90;;;;;;5013246;28;20194;-84
2021/04/02 04:02:12;;;;;;;0.30;0.20;;;6.80;99.90;;;;;;5013305;28;20217;-84
2021/04/02 04:04:45;;;;;;;0.33;0.23;;;6.80;99.90;;;;;;4993639;28;20247;-82
2021/04/02 04:07:13;;;;;;;0.10;0.10;;;6.80;99.90;;;;;;5007281;28;20245;-85
2021/04/02 04:09:41;;;;;;;0.10;0.10;;;6.90;99.90;;;;;;5028895;28;20207;-84
2021/04/02 04:12:10;;;;;;;0.30;0.30;;;6.80;99.90;;;;;;4996670;28;20228;-84
2021/04/02 04:14:52;;;;;;;0.00;0.00;;;6.70;99.90;;;;;;4996527;28;20217;-85
2021/04/02 04:17:19;;;;;;;0.30;0.30;;;6.70;99.90;;;;;;4998077;28;20182;-87
2021/04/02 04:19:48;;;;;;;0.17;0.17;;;6.80;99.90;;;;;;5013446;28;20222;-85
2021/04/02 04:22:16;;;;;;;0.40;0.40;;;6.80;99.90;;;;;;4995978;28;20214;-84
2021/04/02 04:24:47;;;;;;;0.20;0.20;;;6.80;99.90;;;;;;4982382;28;20198;-84
2021/04/02 04:27:14;;;;;;;0.10;0.10;;;6.90;99.90;;;;;;5025849;28;20190;-84
2021/04/02 04:29:42;;;;;;;0.00;0.00;;;6.70;99.90;;;;;;4992198;28;20207;-86
2021/04/02 04:32:13;;;;;;;0.10;0.10;;;6.60;99.90;;;;;;4991715;28;20194;-86
2021/04/02 04:34:39;;;;;;;0.40;0.40;;;6.60;99.90;;;;;;4987577;28;20183;-89
2021/04/02 04:37:06;;;;;;;0.10;0.10;;;6.40;99.90;;;;;;4994494;28;20190;-88
2021/04/02 04:39:32;;;;;;;0.73;0.27;;;6.40;99.90;;;;;;5012574;28;20187;-83
2021/04/02 04:42:00;;;;;;;0.10;0.10;;;6.40;99.90;;;;;;5007725;28;20329;-87
2021/04/02 04:44:27;;;;;;;0.30;0.20;;;6.30;99.90;;;;;;5028244;28;20313;-85
2021/04/02 04:46:53;;;;;;;0.40;0.40;;;6.30;99.90;;;;;;4995040;28;20187;-83
2021/04/02 04:49:19;;;;;;;0.20;0.20;;;6.30;99.90;;;;;;5013547;28;20629;-86
2021/04/02 04:52:04;;;;;;;0.20;0.20;;;6.20;99.90;;;;;;4993939;28;20219;-91
2021/04/02 04:54:32;;;;;;;0.30;0.10;;;6.10;99.90;;;;;;4989453;28;20187;-86
2021/04/02 04:56:59;;;;;;;0.17;0.17;;;6.00;99.90;;;;;;5012281;28;20188;-85
2021/04/02 04:59:28;;;;;;;0.47;0.20;;;6.00;99.90;;;;;;4994118;28;20213;-86
2021/04/02 05:01:55;;;;;;;2.33;0.30;;;6.10;99.90;;;;;;4993969;28;20203;-86
2021/04/02 05:04:23;;;;;;;0.00;0.00;;;6.00;99.90;;;;;;5004494;28;20663;-86
2021/04/02 05:06:54;;;;;;;0.67;0.37;;;6.00;99.90;;;;;;5007473;28;20277;-87
2021/04/02 05:09:22;;;;;;;0.60;0.60;;;6.00;99.90;;;;;;4994442;28;20666;-84
2021/04/02 05:11:49;;;;;;;0.43;0.17;;;6.00;99.90;;;;;;4994141;28;20216;-84
2021/04/02 05:14:16;;;;;;;0.03;0.03;;;5.90;99.90;;;;;;4994486;28;20284;-85
2021/04/02 05:16:43;;;;;;;0.10;0.10;;;5.80;99.90;;;;;;5011656;28;20187;-83
2021/04/02 05:19:11;;;;;;;0.40;0.40;;;5.90;99.90;;;;;;5006682;28;20198;-83
2021/04/02 05:22:12;;;;;;;0.20;0.20;;;5.90;99.90;;;;;;5033471;28;20219;-86
2021/04/02 05:24:38;;;;;;;0.23;0.23;;;5.90;99.90;;;;;;4992052;28;20210;-87
2021/04/02 05:27:05;;;;;;;0.20;0.20;;;6.00;99.90;;;;;;5010077;28;20654;-87
2021/04/02 05:29:31;;;;;;;0.17;0.17;;;6.10;99.90;;;;;;5011500;28;20214;-86
2021/04/02 05:35:19;;;;;;;0.07;0.07;;;6.30;99.90;;;;;;5011334;28;20233;-86
2021/04/02 05:37:44;;;;;;;0.20;0.20;;;6.40;99.90;;;;;;5008863;28;20671;-86
2021/04/02 05:40:10;;;;;;;0.10;0.10;;;6.60;99.90;;;;;;4996832;28;20199;-88
2021/04/02 05:42:39;;;;;;;0.43;0.30;;;6.70;99.90;;;;;;4994173;28;20194;-88
2021/04/02 05:45:06;;;;;;;0.10;0.10;;;6.80;99.90;;;;;;4992137;28;20191;-87
2021/04/02 05:47:54;;;;;;;0.10;0.10;;;6.90;99.90;;;;;;4995764;28;20658;-89
2021/04/02 05:50:40;;;;;;;0.10;0.10;;;7.20;99.90;;;;;;5025340;28;20290;-87
2021/04/02 05:53:10;;;;;;;0.37;0.37;;;7.50;99.90;;;;;;5030689;28;20651;-86
2021/04/02 05:55:50;;;;;;;0.27;0.27;;;7.50;99.90;;;;;;5002516;28;20256;-88
2021/04/02 05:58:19;;;;;;;0.30;0.30;;;7.70;99.90;;;;;;5005004;28;20197;-88
2021/04/02 06:00:53;;;;;;;0.13;0.13;;;7.90;99.90;;;;;;5002515;28;20207;-89
2021/04/02 06:03:25;;;;;;;0.20;0.20;;;8.00;99.90;;;;;;5014751;28;20660;-86
2021/04/02 06:06:22;;;;;;;0.10;0.10;;;8.00;99.90;;;;;;4993947;28;21197;-86
2021/04/02 06:08:52;;;;;;;0.20;0.20;;;8.10;99.90;;;;;;4994331;28;20219;-86
2021/04/02 06:11:18;;;;;;;0.23;0.23;;;8.00;99.90;;;;;;5002135;28;20203;-86
2021/04/02 06:14:02;;;;;;;0.50;0.13;;;8.30;99.90;;;;;;4995652;28;20200;-87
2021/04/02 06:16:39;;;;;;;0.73;0.73;;;8.30;99.90;;;;;;5014466;28;20273;-89
2021/04/02 06:19:09;;;;;;;0.30;0.30;;;8.20;99.90;;;;;;5009170;28;20194;-87
2021/04/02 06:21:51;;;;;;;0.60;0.60;;;8.10;99.90;;;;;;4993316;28;20216;-86
2021/04/02 06:24:43;;;;;;;0.03;0.03;;;8.10;99.90;;;;;;4995491;28;20203;-87
2021/04/02 06:27:11;;;;;;;0.20;0.20;;;8.00;99.90;;;;;;5020800;28;20670;-86
2021/04/02 06:30:01;;;;;;;0.20;0.20;;;8.00;99.90;;;;;;4984707;28;20210;-87
2021/04/02 06:32:37;;;;;;;0.10;0.10;;;8.10;99.90;;;;;;5015193;28;20173;-87
2021/04/02 06:35:10;;;;;;;0.30;0.30;;;8.20;99.90;;;;;;4991211;28;20190;-87
2021/04/02 06:37:36;;;;;;;0.30;0.30;;;8.20;99.90;;;;;;4995356;28;20204;-92
2021/04/02 06:40:13;;;;;;;0.53;0.30;;;8.40;99.90;;;;;;5002505;28;20204;-91
2021/04/02 06:42:42;;;;;;;0.30;0.30;;;8.10;99.90;;;;;;5003675;28;20646;-89
2021/04/02 06:45:08;;;;;;;0.40;0.40;;;8.20;99.90;;;;;;4985789;28;20185;-89
2021/04/02 06:47:39;;;;;;;0.37;0.37;;;8.30;99.90;;;;;;4997069;28;20196;-87
2021/04/02 06:50:24;;;;;;;0.30;0.30;;;8.30;99.90;;;;;;4990788;28;20207;-88
2021/04/02 06:52:51;;;;;;;0.20;0.20;;;8.50;99.90;;;;;;4981496;28;20187;-88
2021/04/02 06:55:18;;;;;;;0.30;0.30;;;8.30;99.90;;;;;;4984996;28;20187;-87
2021/04/02 06:57:52;;;;;;;0.17;0.17;;;8.40;99.90;;;;;;4995729;28;20199;-88
2021/04/02 07:00:26;;;;;;;0.10;0.10;;;8.50;99.90;;;;;;4995464;28;20197;-87
2021/04/02 07:02:52;;;;;;;0.27;0.27;;;8.50;99.90;;;;;;4989335;28;20206;-87
2021/04/02 07:05:25;;;;;;;0.47;0.30;;;8.50;99.90;;;;;;5011606;28;20266;-88
2021/04/02 07:07:59;;;;;;;4.23;0.33;;;8.60;99.90;;;;;;5011606;28;20296;-86
2021/04/02 07:10:26;;;;;;;1.80;0.30;;;8.50;99.90;;;;;;5005583;28;20205;-87
2021/04/02 07:12:53;;;;;;;0.10;0.10;;;8.40;99.90;;;;;;5012090;28;20191;-86
2021/04/02 07:15:19;;;;;;;0.30;0.30;;;8.50;99.90;;;;;;5012647;28;20192;-86
2021/04/02 07:17:49;;;;;;;0.60;0.60;;;8.30;99.90;;;;;;4988994;28;20246;-85
2021/04/02 07:20:15;;;;;;;1.70;0.63;;;8.30;99.90;;;;;;5012073;28;20211;-86
2021/04/02 07:22:41;;;;;;;0.37;0.30;;;8.30;99.90;;;;;;4997403;28;20179;-85
2021/04/02 07:25:09;;;;;;;0.50;0.50;;;8.30;99.90;;;;;;5012937;28;20180;-86
2021/04/02 07:27:35;;;;;;;0.40;0.40;;;8.30;99.90;;;;;;5017358;28;20210;-86
2021/04/02 07:30:04;;;;;;;0.83;0.40;;;8.40;99.90;;;;;;4996725;28;20725;-89
2021/04/02 07:32:43;;;;;;;0.17;0.17;;;8.60;99.90;;;;;;5020379;28;20181;-86
2021/04/02 07:35:16;;;;;;;0.40;0.40;;;8.50;99.90;;;;;;5011092;28;20190;-89
2021/04/02 07:37:46;;;;;;;1.37;1.03;;;8.50;99.90;;;;;;5017011;28;20249;-89
2021/04/02 07:40:13;;;;;;;0.30;0.30;;;8.50;99.90;;;;;;5010768;28;20872;-89
2021/04/02 07:42:39;;;;;;;0.50;0.50;;;8.60;99.90;;;;;;4992592;28;20182;-87
2021/04/02 07:45:06;;;;;;;0.10;0.10;;;8.60;99.90;;;;;;4995048;28;20615;-89
2021/04/02 07:47:32;;;;;;;0.50;0.50;;;8.50;99.90;;;;;;4993477;28;20179;-88
2021/04/02 07:50:02;;;;;;;4.00;0.50;;;8.60;99.90;;;;;;5013594;28;20779;-89
2021/04/02 07:52:38;;;;;;;0.60;0.60;;;8.50;99.90;;;;;;4993232;28;20195;-89
2021/04/02 07:55:22;;;;;;;1.80;1.20;;;8.50;99.90;;;;;;5011131;28;20190;-90
2021/04/02 07:57:53;;;;;;;0.50;0.50;;;8.50;99.90;;;;;;5013527;28;20239;-87
2021/04/02 08:00:21;;;;;;;0.40;0.40;;;8.50;99.90;;;;;;5028467;28;20232;-88
2021/04/02 08:03:15;;;;;;;1.50;1.30;;;8.60;99.90;;;;;;5012502;28;20187;-87
2021/04/02 08:05:56;;;;;;;0.30;0.20;;;8.60;99.90;;;;;;4994874;28;20675;-89
2021/04/02 08:08:26;;;;;;;0.33;0.33;;;8.60;99.90;;;;;;4991251;28;20208;-89
2021/04/02 08:11:04;;;;;;;0.77;0.43;;;8.70;99.90;;;;;;5010327;28;20207;-91
2021/04/02 08:13:44;;;;;;;0.10;0.10;;;8.60;99.90;;;;;;4999292;28;20202;-88
2021/04/02 08:16:32;;;;;;;0.43;0.43;;;8.60;99.90;;;;;;4988490;28;20179;-91
2021/04/02 08:19:24;;;;;;;0.53;0.23;;;8.70;99.90;;;;;;5008442;28;20262;-87
2021/04/02 08:22:11;;;;;;;0.60;0.60;;;8.80;99.90;;;;;;4982603;28;20299;-87
2021/04/02 08:24:39;;;;;;;0.37;0.37;;;8.80;99.90;;;;;;5009047;28;20183;-88
2021/04/02 08:27:06;;;;;;;0.57;0.50;;;8.70;99.90;;;;;;4993345;28;20234;-89
2021/04/02 08:29:33;;;;;;;0.60;0.60;;;8.80;99.90;;;;;;5001257;28;20207;-87
2021/04/02 08:32:52;;;;;;;1.30;1.07;;;8.90;99.90;;;;;;5007119;28;20646;-89
2021/04/02 08:35:19;;;;;;;0.30;0.30;;;8.80;99.90;;;;;;5006322;28;20244;-89
2021/04/02 08:38:05;;;;;;;0.70;0.43;;;8.70;99.90;;;;;;4992715;28;20285;-87
2021/04/02 08:40:35;;;;;;;0.20;0.20;;;8.70;99.90;;;;;;5008889;28;20271;-87
2021/04/02 08:43:02;;;;;;;0.43;0.40;;;8.60;99.90;;;;;;4993929;28;20423;-88
2021/04/02 08:45:35;;;;;;;1.70;0.40;;;8.60;99.90;;;;;;5027145;28;20180;-88
2021/04/02 08:48:01;;;;;;;0.30;0.30;;;8.70;99.90;;;;;;5024514;28;20241;-87
2021/04/02 08:50:28;;;;;;;0.73;0.73;;;8.90;99.90;;;;;;5023394;28;20206;-87
2021/04/02 08:56:43;;;;;;;0.63;0.63;;;8.70;99.90;;;;;;5010971;28;20183;-87
2021/04/02 08:59:11;;;;;;;0.23;0.23;;;8.80;99.90;;;;;;5010404;28;20650;-85
2021/04/02 09:01:43;;;;;;;1.37;0.43;;;8.80;99.90;;;;;;5018838;28;20578;-86
2021/04/02 09:04:10;;;;;;;0.60;0.30;;;9.00;99.90;;;;;;5018104;28;20178;-84
2021/04/02 09:06:36;;;;;;;1.60;0.30;;;8.90;99.90;;;;;;5012581;28;20557;-84
2021/04/02 09:09:12;;;;;;;0.70;0.47;;;8.80;99.90;;;;;;4991093;28;20205;-83
2021/04/02 09:12:25;;;;;;;1.40;0.43;;;9.00;99.90;;;;;;5000129;28;20208;-84
2021/04/02 09:14:52;;;;;;;0.10;0.10;;;9.00;99.90;;;;;;5011525;28;20179;-85
2021/04/02 09:17:26;;;;;;;0.50;0.50;;;9.10;99.90;;;;;;4996125;28;20183;-84
2021/04/02 09:19:53;;;;;;;0.57;0.57;;;8.90;99.90;;;;;;4995372;28;20215;-84
2021/04/02 09:22:20;;;;;;;1.37;1.20;;;8.90;99.90;;;;;;5031451;28;20284;-85
2021/04/02 09:24:45;;;;;;;0.37;0.37;;;8.90;99.90;;;;;;5032266;28;20200;-84
2021/04/02 09:27:19;;;;;;;0.43;0.30;;;8.90;99.90;;;;;;4999053;28;20189;-85
2021/04/02 09:29:46;;;;;;;0.50;0.30;;;8.70;99.90;;;;;;4999992;28;20603;-84
2021/04/02 09:32:13;;;;;;;0.53;0.50;;;8.80;99.90;;;;;;5006743;28;20179;-84
2021/04/02 09:34:38;;;;;;;0.40;0.40;;;8.90;99.90;;;;;;5016689;28;20294;-85
2021/04/02 09:37:05;;;;;;;0.50;0.40;;;8.90;99.90;;;;;;5016134;28;20172;-88
2021/04/02 09:39:31;;;;;;;0.57;0.50;;;9.00;99.90;;;;;;5014635;28;20183;-84
2021/04/02 09:41:58;;;;;;;0.30;0.30;;;8.90;99.90;;;;;;5016009;28;20727;-84
2021/04/02 09:44:29;;;;;;;0.50;0.30;;;9.00;99.90;;;;;;4998697;28;20192;-83
2021/04/02 09:47:09;;;;;;;0.40;0.40;;;8.90;99.90;;;;;;4998619;28;20183;-85
2021/04/02 09:49:36;;;;;;;0.50;0.50;;;8.80;99.90;;;;;;5015752;28;20218;-84
2021/04/02 09:52:04;;;;;;;0.20;0.20;;;9.00;99.90;;;;;;4999205;28;20185;-85
2021/04/02 09:54:34;;;;;;;0.90;0.83;;;9.30;99.90;;;;;;5016092;28;20181;-85
2021/04/02 09:57:07;;;;;;;0.57;0.57;;;9.20;99.90;;;;;;5016000;28;20235;-84
2021/04/02 09:59:34;;;;;;;0.20;0.20;;;9.10;99.90;;;;;;5016153;28;20207;-85
2021/04/02 10:02:00;;;;;;;0.40;0.40;;;9.30;99.90;;;;;;5016971;28;20207;-85
2021/04/02 10:04:26;;;;;;;0.73;0.30;;;9.70;99.90;;;;;;5016358;28;20186;-84
2021/04/02 10:06:52;;;;;;;0.73;0.73;;;9.80;99.90;;;;;;4999082;28;20223;-86
2021/04/02 10:09:17;;;;;;;0.67;0.67;;;9.40;99.90;;;;;;5016223;28;20215;-85
2021/04/02 10:11:45;;;;;;;0.20;0.20;;;9.40;99.90;;;;;;4998919;28;20212;-84
2021/04/02 10:14:12;;;;;;;0.50;0.50;;;9.50;99.90;;;;;;4998881;28;20667;-85
2021/04/02 10:16:38;;;;;;;0.40;0.40;;;9.50;99.90;;;;;;5031535;28;20287;-84
2021/04/02 10:19:05;;;;;;;1.27;0.50;;;9.40;99.90;;;;;;4998617;28;20695;-84
2021/04/02 10:21:31;;;;;;;0.47;0.43;;;9.40;99.90;;;;;;4998348;28;20664;-84
2021/04/02 10:23:57;;;;;;;0.53;0.53;;;9.40;99.90;;;;;;4998734;28;20204;-84
2021/04/02 10:26:23;;;;;;;1.33;1.27;;;9.90;99.90;;;;;;5016421;28;20192;-85
2021/04/02 10:28:48;;;;;;;0.40;0.40;;;9.90;99.90;;;;;;4998388;28;20213;-85
2021/04/02 10:31:15;;;;;;;1.20;0.53;;;10.00;99.90;;;;;;5016164;28;20617;-87
2021/04/02 10:33:41;;;;;;;0.20;0.20;;;10.20;99.90;;;;;;5015915;28;20186;-85
2021/04/02 10:36:07;;;;;;;0.93;0.40;;;10.20;99.90;;;;;;4997830;28;20280;-85
2021/04/02 10:38:33;;;;;;;3.43;1.50;;;10.20;99.90;;;;;;4997494;28;20205;-84
2021/04/02 10:40:58;;;;;;;2.13;0.43;;;10.10;99.90;;;;;;4997282;28;20213;-84
2021/04/02 10:43:24;;;;;;;0.63;0.40;;;10.60;99.90;;;;;;5015041;28;20241;-85
2021/04/02 10:45:50;;;;;;;0.53;0.43;;;10.60;99.90;;;;;;5019307;28;20190;-84
2021/04/02 10:48:16;;;;;;;0.40;0.40;;;10.50;99.90;;;;;;5018389;28;20687;-86
2021/04/02 10:50:43;;;;;;;0.03;0.03;;;10.70;99.90;;;;;;4998324;28;20248;-84
2021/04/02 10:53:09;;;;;;;0.33;0.30;;;11.00;99.90;;;;;;4998169;28;20238;-84
2021/04/02 10:55:35;;;;;;;0.40;0.40;;;11.10;99.90;;;;;;4998363;28;20593;-85
2021/04/02 10:58:04;;;;;;;0.37;0.30;;;11.10;99.90;;;;;;5015483;28;20185;-84
2021/04/02 11:00:30;;;;;;;0.20;0.20;;;11.00;99.90;;;;;;4997668;28;20210;-85
2021/04/02 11:02:55;;;;;;;0.47;0.47;;;11.40;99.90;;;;;;4996929;28;21881;-85
2021/04/02 11:05:21;;;;;;;0.63;0.30;;;12.00;99.90;;;;;;4997596;28;20724;-85
2021/04/02 11:07:47;;;;;;;0.50;0.50;;;12.40;99.90;;;;;;5014997;28;20187;-84
2021/04/02 11:10:13;;;;;;;0.50;0.50;;;11.90;99.90;;;;;;5014606;28;20200;-84
2021/04/02 11:12:39;;;;;;;0.10;0.10;;;11.80;99.90;;;;;;4996885;28;20179;-84
2021/04/02 11:15:07;;;;;;;0.60;0.60;;;12.20;99.90;;;;;;4996867;28;20193;-84
2021/04/02 11:17:32;;;;;;;0.30;0.30;;;12.60;99.90;;;;;;4997207;28;20190;-85
2021/04/02 11:19:59;;;;;;;0.53;0.47;;;13.00;99.90;;;;;;4996663;28;20203;-86
2021/04/02 11:22:24;;;;;;;0.63;0.63;;;12.10;99.90;;;;;;4996668;28;20190;-85
2021/04/02 11:24:53;;;;;;;1.17;1.07;;;11.30;99.90;;;;;;5014399;28;20197;-86
2021/04/02 11:27:20;;;;;;;1.27;1.13;;;11.00;99.90;;;;;;5013965;28;20734;-84
2021/04/02 11:29:46;;;;;;;0.40;0.30;;;10.90;99.90;;;;;;5014121;28;20613;-85
2021/04/02 11:32:12;;;;;;;2.03;0.80;;;11.70;99.90;;;;;;4995757;28;20182;-84
2021/04/02 11:34:39;;;;;;;0.83;0.27;;;12.10;99.90;;;;;;5004475;28;20209;-88
2021/04/02 11:37:05;;;;;;;1.50;0.70;;;12.20;99.90;;;;;;4995720;28;20275;-87
2021/04/02 11:39:32;;;;;;;0.33;0.33;;;12.30;99.90;;;;;;4995835;28;20365;-84
2021/04/02 11:41:58;;;;;;;0.17;0.13;;;12.20;99.90;;;;;;5012235;28;20199;-85
2021/04/02 11:44:24;;;;;;;0.50;0.50;;;12.90;99.90;;;;;;5013261;28;20273;-85
2021/04/02 11:46:51;;;;;;;0.33;0.30;;;12.60;99.90;;;;;;4996290;28;20183;-85
2021/04/02 11:49:17;;;;;;;0.30;0.30;;;12.00;99.90;;;;;;4996295;28;20710;-87
2021/04/02 11:51:43;;;;;;;0.10;0.10;;;12.40;99.90;;;;;;4996159;28;20199;-86
2021/04/02 11:54:08;;;;;;;0.13;0.13;;;12.10;99.90;;;;;;5014560;28;20668;-86
2021/04/02 11:56:34;;;;;;;0.20;0.20;;;12.70;99.90;;;;;;4996183;28;20246;-85
2021/04/02 11:59:00;;;;;;;0.27;0.27;;;13.10;99.90;;;;;;5013392;28;20183;-84
2021/04/02 12:01:25;;;;;;;0.20;0.20;;;13.10;99.90;;;;;;5013389;28;20207;-85
2021/04/02 12:03:51;;;;;;;0.17;0.17;;;12.20;99.90;;;;;;4995705;28;20187;-85
2021/04/02 12:06:17;;;;;;;0.20;0.20;;;12.30;99.90;;;;;;4996055;28;20188;-85
2021/04/02 12:08:43;;;;;;;0.10;0.10;;;12.90;99.90;;;;;;5028579;28;20745;-86
2021/04/02 12:11:12;;;;;;;0.30;0.30;;;13.30;99.90;;;;;;4995647;28;20203;-85
2021/04/02 12:13:38;;;;;;;0.10;0.10;;;13.60;99.90;;;;;;4996758;28;20183;-85
2021/04/02 12:16:04;;;;;;;0.73;0.20;;;13.90;99.90;;;;;;5013249;28;20670;-84
2021/04/02 12:18:29;;;;;;;0.40;0.40;;;14.40;99.90;;;;;;4995210;28;20245;-85
2021/04/02 12:20:55;;;;;;;0.20;0.20;;;14.30;99.90;;;;;;5012833;28;20212;-85
2021/04/02 12:23:21;;;;;;;0.13;0.13;;;14.70;99.90;;;;;;4995297;28;20235;-86
2021/04/02 12:25:47;;;;;;;0.20;0.20;;;15.00;99.90;;;;;;5012863;28;20310;-85
2021/04/02 12:28:13;;;;;;;1.20;0.50;;;14.40;99.90;;;;;;5012510;28;20287;-85
2021/04/02 12:30:39;;;;;;;0.40;0.40;;;13.60;99.90;;;;;;5012628;28;20227;-84
2021/04/02 12:33:05;;;;;;;0.90;0.90;;;13.60;99.90;;;;;;5031495;28;20190;-84
2021/04/02 12:35:32;;;;;;;0.10;0.10;;;14.10;99.90;;;;;;4995843;28;20575;-85
2021/04/02 12:37:57;;;;;;;0.60;0.60;;;13.80;99.90;;;;;;4994763;28;20558;-85
2021/04/02 12:40:24;;;;;;;0.40;0.40;;;13.90;99.90;;;;;;4994914;28;20208;-85
2021/04/02 12:42:50;;;;;;;0.50;0.50;;;14.40;99.90;;;;;;5012709;28;20183;-85
2021/04/02 12:45:16;;;;;;;0.20;0.20;;;14.70;99.90;;;;;;5012597;28;20181;-85
2021/04/02 12:47:42;;;;;;;0.20;0.20;;;14.90;99.90;;;;;;4994819;28;20218;-84
2021/04/02 12:50:17;;;;;;;0.07;0.07;;;15.00;99.90;;;;;;5030214;28;20303;-85
2021/04/02 12:52:53;;;;;;;0.73;0.40;;;14.90;99.90;;;;;;5012052;28;20165;-85
2021/04/02 12:55:22;;;;;;;1.47;0.60;;;14.00;99.90;;;;;;4993974;28;20565;-86
2021/04/02 12:57:48;;;;;;;0.30;0.30;;;14.20;99.90;;;;;;4994079;28;20179;-85
2021/04/02 13:00:23;;;;;;;0.40;0.40;;;14.20;99.90;;;;;;4995244;28;20205;-84
2021/04/02 13:02:50;;;;;;;0.80;0.80;;;14.50;99.90;;;;;;5003972;28;20233;-84
2021/04/02 13:05:16;;;;;;;0.30;0.30;;;13.80;99.90;;;;;;5008110;28;20656;-84
2021/04/02 13:07:42;;;;;;;0.30;0.30;;;13.90;99.90;;;;;;4994866;28;20272;-84
2021/04/02 13:10:11;;;;;;;0.23;0.23;;;14.10;99.90;;;;;;5003903;28;20219;-84
2021/04/02 13:12:42;;;;;;;0.63;0.40;;;13.90;99.90;;;;;;4994499;28;20800;-84
2021/04/02 13:15:09;;;;;;;0.63;0.63;;;14.20;99.90;;;;;;5012357;28;20632;-85
2021/04/02 13:17:35;;;;;;;0.37;0.37;;;14.30;99.90;;;;;;5012992;28;20185;-84
2021/04/02 13:20:02;;;;;;;1.13;0.80;;;14.50;99.90;;;;;;4995147;28;20221;-83